createdAt,value
2023-01-11T00:03:25.243Z,20.90
2023-01-11T00:08:29.155Z,23.05
2023-01-11T00:13:34.944Z,22.73
2023-01-11T00:18:38.637Z,22.60
2023-01-11T00:23:42.362Z,20.50
2023-01-11T00:28:49.403Z,19.60
2023-01-11T00:33:53.196Z,20.23
2023-01-11T00:38:56.755Z,20.13
2023-01-11T00:44:00.415Z,18.30
2023-01-11T00:49:03.882Z,20.73
2023-01-11T00:54:07.569Z,20.65
2023-01-11T00:59:10.850Z,20.98
2023-01-11T01:04:15.537Z,21.02
2023-01-11T01:09:19.731Z,20.58
2023-01-11T01:24:30.330Z,17.27
2023-01-11T01:29:33.850Z,17.25
2023-01-11T01:34:40.207Z,16.60
2023-01-11T01:39:43.663Z,16.25
2023-01-11T01:45:00.965Z,16.67
2023-01-11T01:50:18.249Z,17.05
2023-01-11T01:55:31.956Z,15.82
2023-01-11T02:00:35.589Z,16.35
2023-01-11T02:05:39.295Z,15.25
2023-01-11T02:10:43.346Z,16.15
2023-01-11T02:15:47.496Z,15.88
2023-01-11T02:21:17.234Z,15.63
2023-01-11T02:26:39.335Z,15.43
2023-01-11T02:31:56.229Z,16.45
2023-01-11T02:37:31.333Z,16.40
2023-01-11T02:42:49.081Z,17.05
2023-01-11T02:48:00.499Z,17.92
2023-01-11T02:53:24.608Z,17.67
2023-01-11T02:58:33.497Z,14.88
2023-01-11T03:03:37.115Z,14.60
2023-01-11T03:09:14.805Z,15.40
2023-01-11T03:14:18.065Z,15.48
2023-01-11T03:24:52.948Z,15.88
2023-01-11T03:30:09.622Z,17.50
2023-01-11T03:35:27.057Z,17.42
2023-01-11T03:41:06.011Z,15.98
2023-01-11T03:46:17.545Z,14.90
2023-01-11T03:51:30.476Z,17.67
2023-01-11T03:57:10.862Z,16.27
2023-01-11T04:02:19.721Z,16.70
2023-01-11T04:07:23.079Z,17.33
2023-01-11T04:12:26.758Z,17.67
2023-01-11T04:17:30.175Z,17.58
2023-01-11T04:22:33.549Z,18.38
2023-01-11T04:27:38.103Z,18.83
2023-01-11T04:32:42.811Z,17.75
2023-01-11T04:37:46.209Z,17.60
2023-01-11T04:42:49.824Z,17.00
2023-01-11T04:47:56.837Z,16.75
2023-01-11T04:53:00.187Z,16.25
2023-01-11T04:58:03.597Z,15.45
2023-01-11T05:13:13.391Z,16.48
2023-01-11T05:18:16.867Z,14.90
2023-01-11T05:33:26.647Z,16.17
2023-01-11T05:38:30.516Z,16.38
2023-01-11T05:43:34.516Z,16.95
2023-01-11T05:48:38.611Z,15.05
2023-01-11T05:53:42.389Z,16.35
2023-01-11T05:58:48.670Z,15.88
2023-01-11T06:03:52.740Z,17.00
2023-01-11T06:08:56.273Z,17.05
2023-01-11T06:13:59.827Z,15.23
2023-01-11T06:24:09.588Z,17.42
2023-01-11T06:29:13.031Z,16.55
2023-01-11T06:34:16.789Z,15.65
2023-01-11T06:39:20.305Z,11.93
2023-01-11T06:44:25.420Z,14.88
2023-01-11T06:54:32.010Z,13.45
2023-01-11T06:59:36.461Z,14.10
2023-01-11T07:09:43.038Z,15.10
2023-01-11T07:14:46.526Z,15.13
2023-01-11T07:19:49.994Z,16.52
2023-01-11T07:24:53.452Z,17.42
2023-01-11T07:29:56.836Z,15.65
2023-01-11T07:50:11.407Z,16.90
2023-01-11T07:55:15.413Z,17.20
2023-01-11T08:00:19.429Z,17.98
2023-01-11T08:05:24.458Z,16.25
2023-01-11T08:10:27.825Z,16.65
2023-01-11T08:15:33.028Z,17.70
2023-01-11T08:20:37.120Z,18.25
2023-01-11T08:25:40.564Z,17.45
2023-01-11T08:35:49.537Z,15.90
2023-01-11T08:40:53.191Z,15.73
2023-01-11T08:45:56.721Z,15.05
2023-01-11T08:51:00.068Z,14.55
2023-01-11T08:56:03.534Z,16.77
2023-01-11T09:01:07.010Z,16.63
2023-01-11T09:06:12.647Z,16.30
2023-01-11T09:16:19.177Z,16.52
2023-01-11T09:21:25.822Z,17.17
2023-01-11T09:26:29.623Z,17.30
2023-01-11T09:31:33.151Z,16.67
2023-01-11T09:36:36.866Z,16.15
2023-01-11T09:42:22.803Z,15.40
2023-01-11T09:47:47.839Z,15.27
2023-01-11T09:52:58.706Z,15.77
2023-01-11T09:58:13.942Z,16.90
2023-01-11T10:03:32.014Z,16.38
2023-01-11T10:18:22.128Z,16.02
2023-01-11T10:20:01.018Z,14.18
2023-01-11T10:25:15.397Z,13.55
2023-01-11T10:35:30.036Z,13.73
2023-01-11T10:40:58.982Z,12.52
2023-01-11T10:46:14.007Z,12.55
2023-01-11T10:51:33.021Z,12.40
2023-01-11T10:57:03.017Z,10.93
2023-01-11T11:02:25.428Z,12.30
2023-01-11T11:07:46.640Z,12.10
2023-01-11T11:13:15.243Z,10.45
2023-01-11T11:18:19.433Z,10.40
2023-01-11T11:23:25.444Z,11.25
2023-01-11T11:28:33.188Z,11.05
2023-01-11T11:33:39.150Z,10.82
2023-01-11T11:39:05.700Z,10.50
2023-01-11T11:44:27.464Z,10.65
2023-01-11T11:49:33.378Z,10.15
2023-01-11T11:54:41.119Z,10.13
2023-01-11T11:59:48.449Z,10.25
2023-01-11T12:04:54.019Z,11.07
2023-01-11T12:10:02.984Z,12.05
2023-01-11T12:15:16.845Z,12.65
2023-01-11T12:20:23.359Z,11.98
2023-01-11T12:25:28.340Z,11.60
2023-01-11T12:30:40.996Z,11.15
2023-01-11T12:36:12.372Z,9.88
2023-01-11T12:41:21.499Z,9.60
2023-01-11T12:47:01.998Z,9.57
2023-01-11T12:52:36.499Z,8.90
2023-01-11T12:57:59.378Z,9.27
2023-01-11T13:03:14.591Z,9.07
2023-01-11T13:08:44.751Z,9.02
2023-01-11T13:14:01.820Z,9.55
2023-01-11T13:19:21.478Z,9.55
2023-01-11T13:24:31.638Z,10.75
2023-01-11T13:29:44.261Z,9.57
2023-01-11T13:34:59.977Z,10.38
2023-01-11T13:40:24.600Z,10.38
2023-01-11T13:45:37.935Z,9.27
2023-01-11T13:50:51.657Z,10.27
2023-01-11T13:56:00.021Z,9.80
2023-01-11T14:01:21.834Z,10.90
2023-01-11T14:06:44.129Z,9.07
2023-01-11T14:12:05.729Z,9.45
2023-01-11T14:17:47.515Z,9.13
2023-01-11T14:22:56.492Z,10.02
2023-01-11T14:28:25.737Z,8.60
2023-01-11T14:33:29.479Z,9.30
2023-01-11T14:38:41.635Z,10.18
2023-01-11T14:44:00.326Z,9.60
2023-01-11T14:49:31.231Z,10.43
2023-01-11T14:54:45.566Z,9.57
2023-01-11T14:59:49.905Z,9.30
2023-01-11T15:04:53.281Z,9.93
2023-01-11T15:15:08.484Z,8.77
2023-01-11T15:20:15.504Z,8.63
2023-01-11T15:25:25.140Z,8.63
2023-01-11T15:30:31.609Z,8.60
2023-01-11T15:35:35.640Z,9.38
2023-01-11T15:40:44.282Z,8.93
2023-01-11T15:45:54.424Z,8.15
2023-01-11T15:51:26.255Z,8.35
2023-01-11T15:56:35.311Z,8.47
2023-01-11T16:02:14.188Z,8.20
2023-01-11T16:07:36.045Z,7.75
2023-01-11T16:13:16.455Z,8.75
2023-01-11T16:23:30.177Z,8.25
2023-01-11T16:28:33.951Z,9.50
2023-01-11T16:33:37.384Z,9.93
2023-01-11T16:39:00.833Z,8.90
2023-01-11T16:44:09.219Z,9.02
2023-01-11T16:49:19.761Z,8.93
2023-01-11T16:54:33.714Z,8.80
2023-01-11T16:59:37.480Z,7.68
2023-01-11T17:04:51.979Z,6.50
2023-01-11T17:10:15.695Z,6.28
2023-01-11T17:15:57.686Z,6.38
2023-01-11T17:21:01.264Z,5.80
2023-01-11T17:26:08.992Z,6.00
2023-01-11T17:31:26.783Z,5.00
2023-01-11T17:41:37.249Z,5.80
2023-01-11T17:46:40.817Z,5.70
2023-01-11T17:51:47.929Z,6.20
2023-01-11T17:56:58.801Z,6.22
2023-01-11T18:02:11.374Z,6.00
2023-01-11T18:07:19.774Z,5.55
2023-01-11T18:12:33.543Z,5.70
2023-01-11T18:17:39.782Z,5.90
2023-01-11T18:22:58.056Z,5.78
2023-01-11T18:28:29.543Z,4.90
2023-01-11T18:33:34.395Z,5.03
2023-01-11T18:38:37.645Z,5.30
2023-01-11T18:48:44.003Z,4.35
2023-01-11T18:53:47.411Z,4.22
2023-01-11T18:58:51.225Z,4.85
2023-01-11T19:03:54.769Z,5.13
2023-01-11T19:08:58.348Z,4.50
2023-01-11T19:14:03.498Z,4.43
2023-01-11T19:19:07.305Z,4.38
2023-01-11T19:24:12.285Z,4.45
2023-01-11T19:29:15.896Z,5.25
2023-01-11T19:34:20.248Z,5.03
2023-01-11T19:39:25.097Z,5.10
2023-01-11T19:49:35.969Z,4.72
2023-01-11T19:54:43.244Z,5.07
2023-01-11T19:59:50.079Z,5.20
2023-01-11T20:04:53.643Z,5.70
2023-01-11T20:09:57.985Z,5.75
2023-01-11T20:15:08.080Z,5.70
2023-01-11T20:20:14.507Z,5.55
2023-01-11T20:25:19.251Z,5.82
2023-01-11T20:30:23.723Z,6.15
2023-01-11T20:40:31.858Z,5.50
2023-01-11T20:45:35.171Z,6.38
2023-01-11T20:50:39.332Z,6.10
2023-01-11T21:05:48.984Z,5.78
2023-01-11T21:10:53.203Z,6.47
2023-01-11T21:15:56.814Z,5.45
2023-01-11T21:21:05.234Z,6.35
2023-01-11T21:26:23.260Z,5.60
2023-01-11T21:31:32.424Z,6.28
2023-01-11T21:36:35.911Z,6.50
2023-01-11T21:41:39.629Z,6.32
2023-01-11T21:46:42.999Z,7.30
2023-01-11T21:51:46.454Z,6.53
2023-01-11T21:56:50.599Z,7.63
2023-01-11T22:01:54.197Z,7.07
2023-01-11T22:06:59.186Z,7.10
2023-01-11T22:12:03.197Z,7.50
2023-01-11T22:17:07.660Z,7.30
2023-01-11T22:27:15.538Z,7.50
2023-01-11T22:32:19.150Z,7.43
2023-01-11T22:37:23.210Z,7.60
2023-01-11T22:42:27.009Z,7.40
2023-01-11T22:47:30.405Z,7.22
2023-01-11T22:52:33.683Z,7.60
2023-01-11T23:02:40.307Z,8.43
2023-01-11T23:07:43.993Z,8.55
2023-01-11T23:12:47.648Z,8.32
2023-01-11T23:17:51.033Z,7.10
2023-01-11T23:33:00.586Z,7.60
2023-01-11T23:38:03.908Z,7.90
2023-01-11T23:43:07.205Z,7.22
2023-01-11T23:48:10.457Z,8.18
2023-01-11T23:53:15.021Z,9.15
